sensor_id;sensor_type;location;lat;lon;timestamp;P1;durP1;ratioP1;P2;durP2;ratioP2
2646;SDS011;1333;50.958;6.770;2022-11-12T00:00:22;8.63;;;5.10;;
2646;SDS011;1333;50.958;6.770;2022-11-12T00:02:47;7.87;;;4.83;;
2646;SDS011;1333;50.958;6.770;2022-11-12T00:05:13;7.50;;;5.60;;
2646;SDS011;1333;50.958;6.770;2022-11-12T00:07:38;6.23;;;4.87;;
2646;SDS011;1333;50.958;6.770;2022-11-12T00:10:04;6.30;;;4.83;;
2646;SDS011;1333;50.958;6.770;2022-11-12T00:12:30;5.50;;;4.30;;
2646;SDS011;1333;50.958;6.770;2022-11-12T00:14:55;4.80;;;4.00;;
2646;SDS011;1333;50.958;6.770;2022-11-12T00:17:21;9.30;;;4.97;;
2646;SDS011;1333;50.958;6.770;2022-11-12T00:19:47;9.33;;;5.40;;
2646;SDS011;1333;50.958;6.770;2022-11-12T00:22:13;5.30;;;4.23;;
2646;SDS011;1333;50.958;6.770;2022-11-12T00:24:38;7.23;;;5.13;;
2646;SDS011;1333;50.958;6.770;2022-11-12T00:27:04;8.80;;;5.00;;
2646;SDS011;1333;50.958;6.770;2022-11-12T00:29:29;5.80;;;4.90;;
2646;SDS011;1333;50.958;6.770;2022-11-12T00:31:55;16.23;;;5.23;;
2646;SDS011;1333;50.958;6.770;2022-11-12T00:34:20;5.17;;;3.93;;
2646;SDS011;1333;50.958;6.770;2022-11-12T00:36:46;6.37;;;5.50;;
2646;SDS011;1333;50.958;6.770;2022-11-12T00:39:11;6.43;;;4.10;;
2646;SDS011;1333;50.958;6.770;2022-11-12T00:41:37;9.70;;;5.13;;
2646;SDS011;1333;50.958;6.770;2022-11-12T00:44:02;6.07;;;4.77;;
2646;SDS011;1333;50.958;6.770;2022-11-12T00:46:28;6.70;;;4.80;;
2646;SDS011;1333;50.958;6.770;2022-11-12T00:48:53;10.07;;;5.10;;
2646;SDS011;1333;50.958;6.770;2022-11-12T00:51:19;11.13;;;6.43;;
2646;SDS011;1333;50.958;6.770;2022-11-12T00:53:48;6.30;;;4.87;;
2646;SDS011;1333;50.958;6.770;2022-11-12T00:56:14;7.87;;;5.70;;
2646;SDS011;1333;50.958;6.770;2022-11-12T00:58:40;7.77;;;4.93;;
2646;SDS011;1333;50.958;6.770;2022-11-12T01:01:06;10.40;;;6.63;;
2646;SDS011;1333;50.958;6.770;2022-11-12T01:03:34;9.50;;;5.77;;
2646;SDS011;1333;50.958;6.770;2022-11-12T01:06:02;11.33;;;6.63;;
2646;SDS011;1333;50.958;6.770;2022-11-12T01:08:32;10.20;;;6.60;;
2646;SDS011;1333;50.958;6.770;2022-11-12T01:11:05;7.43;;;5.40;;
2646;SDS011;1333;50.958;6.770;2022-11-12T01:13:31;9.63;;;5.43;;
2646;SDS011;1333;50.958;6.770;2022-11-12T01:15:57;8.80;;;6.37;;
2646;SDS011;1333;50.958;6.770;2022-11-12T01:18:22;14.67;;;5.83;;
2646;SDS011;1333;50.958;6.770;2022-11-12T01:20:48;9.40;;;5.77;;
2646;SDS011;1333;50.958;6.770;2022-11-12T01:23:13;11.13;;;6.57;;
2646;SDS011;1333;50.958;6.770;2022-11-12T01:25:39;8.83;;;6.30;;
2646;SDS011;1333;50.958;6.770;2022-11-12T01:28:04;6.87;;;5.10;;
2646;SDS011;1333;50.958;6.770;2022-11-12T01:30:30;7.70;;;5.63;;
2646;SDS011;1333;50.958;6.770;2022-11-12T01:32:55;9.70;;;7.03;;
2646;SDS011;1333;50.958;6.770;2022-11-12T01:35:21;7.47;;;5.53;;
2646;SDS011;1333;50.958;6.770;2022-11-12T01:37:46;7.50;;;5.10;;
2646;SDS011;1333;50.958;6.770;2022-11-12T01:40:12;10.27;;;6.43;;
2646;SDS011;1333;50.958;6.770;2022-11-12T01:42:38;13.17;;;7.50;;
2646;SDS011;1333;50.958;6.770;2022-11-12T01:45:11;11.80;;;5.97;;
2646;SDS011;1333;50.958;6.770;2022-11-12T01:47:39;11.87;;;6.20;;
2646;SDS011;1333;50.958;6.770;2022-11-12T01:50:13;8.90;;;6.57;;
2646;SDS011;1333;50.958;6.770;2022-11-12T01:52:48;9.80;;;6.07;;
2646;SDS011;1333;50.958;6.770;2022-11-12T01:55:32;9.60;;;5.70;;
2646;SDS011;1333;50.958;6.770;2022-11-12T01:58:04;6.20;;;5.33;;
2646;SDS011;1333;50.958;6.770;2022-11-12T02:00:35;13.23;;;7.07;;
2646;SDS011;1333;50.958;6.770;2022-11-12T02:03:01;9.40;;;6.40;;
2646;SDS011;1333;50.958;6.770;2022-11-12T02:05:31;7.33;;;5.60;;
2646;SDS011;1333;50.958;6.770;2022-11-12T02:07:59;9.60;;;5.70;;
2646;SDS011;1333;50.958;6.770;2022-11-12T02:10:25;16.23;;;6.80;;
2646;SDS011;1333;50.958;6.770;2022-11-12T02:12:51;11.93;;;5.97;;
2646;SDS011;1333;50.958;6.770;2022-11-12T02:15:37;9.83;;;5.47;;
2646;SDS011;1333;50.958;6.770;2022-11-12T02:18:04;11.13;;;5.83;;
2646;SDS011;1333;50.958;6.770;2022-11-12T02:20:36;7.90;;;5.77;;
2646;SDS011;1333;50.958;6.770;2022-11-12T02:23:03;8.57;;;6.37;;
2646;SDS011;1333;50.958;6.770;2022-11-12T02:25:31;10.57;;;6.63;;
2646;SDS011;1333;50.958;6.770;2022-11-12T02:27:57;10.50;;;7.33;;
2646;SDS011;1333;50.958;6.770;2022-11-12T02:30:36;11.10;;;6.60;;
2646;SDS011;1333;50.958;6.770;2022-11-12T02:33:06;9.57;;;6.07;;
2646;SDS011;1333;50.958;6.770;2022-11-12T02:35:32;15.03;;;7.17;;
2646;SDS011;1333;50.958;6.770;2022-11-12T02:37:58;11.53;;;7.90;;
2646;SDS011;1333;50.958;6.770;2022-11-12T02:40:24;13.00;;;7.03;;
2646;SDS011;1333;50.958;6.770;2022-11-12T02:42:49;10.37;;;6.60;;
2646;SDS011;1333;50.958;6.770;2022-11-12T02:45:15;7.63;;;5.53;;
2646;SDS011;1333;50.958;6.770;2022-11-12T02:47:41;12.30;;;7.10;;
2646;SDS011;1333;50.958;6.770;2022-11-12T02:50:07;12.80;;;6.47;;
2646;SDS011;1333;50.958;6.770;2022-11-12T02:52:33;9.10;;;6.43;;
2646;SDS011;1333;50.958;6.770;2022-11-12T02:54:59;10.70;;;7.50;;
2646;SDS011;1333;50.958;6.770;2022-11-12T02:57:25;14.20;;;7.40;;
2646;SDS011;1333;50.958;6.770;2022-11-12T02:59:51;12.27;;;6.80;;
2646;SDS011;1333;50.958;6.770;2022-11-12T03:02:16;12.13;;;7.60;;
2646;SDS011;1333;50.958;6.770;2022-11-12T03:04:42;11.80;;;7.30;;
2646;SDS011;1333;50.958;6.770;2022-11-12T03:07:07;13.10;;;7.60;;
2646;SDS011;1333;50.958;6.770;2022-11-12T03:09:33;17.13;;;7.73;;
2646;SDS011;1333;50.958;6.770;2022-11-12T03:11:58;16.33;;;7.40;;
2646;SDS011;1333;50.958;6.770;2022-11-12T03:14:24;12.40;;;7.20;;
2646;SDS011;1333;50.958;6.770;2022-11-12T03:16:50;17.77;;;7.37;;
2646;SDS011;1333;50.958;6.770;2022-11-12T03:19:16;9.27;;;7.03;;
2646;SDS011;1333;50.958;6.770;2022-11-12T03:21:41;11.27;;;6.57;;
2646;SDS011;1333;50.958;6.770;2022-11-12T03:24:07;17.33;;;7.23;;
2646;SDS011;1333;50.958;6.770;2022-11-12T03:26:32;11.53;;;7.37;;
2646;SDS011;1333;50.958;6.770;2022-11-12T03:28:58;10.67;;;7.40;;
2646;SDS011;1333;50.958;6.770;2022-11-12T03:31:23;13.57;;;7.33;;
2646;SDS011;1333;50.958;6.770;2022-11-12T03:33:49;10.90;;;7.27;;
2646;SDS011;1333;50.958;6.770;2022-11-12T03:36:14;13.43;;;6.97;;
2646;SDS011;1333;50.958;6.770;2022-11-12T03:38:40;12.50;;;8.27;;
2646;SDS011;1333;50.958;6.770;2022-11-12T03:41:05;10.30;;;6.90;;
2646;SDS011;1333;50.958;6.770;2022-11-12T03:43:31;13.63;;;7.33;;
2646;SDS011;1333;50.958;6.770;2022-11-12T03:45:56;10.10;;;7.10;;
2646;SDS011;1333;50.958;6.770;2022-11-12T03:48:22;8.40;;;6.57;;
2646;SDS011;1333;50.958;6.770;2022-11-12T03:50:48;13.57;;;7.90;;
2646;SDS011;1333;50.958;6.770;2022-11-12T03:53:13;7.83;;;5.90;;
2646;SDS011;1333;50.958;6.770;2022-11-12T03:55:39;12.93;;;7.80;;
2646;SDS011;1333;50.958;6.770;2022-11-12T03:58:04;14.93;;;6.50;;
2646;SDS011;1333;50.958;6.770;2022-11-12T04:00:30;14.27;;;6.70;;
2646;SDS011;1333;50.958;6.770;2022-11-12T04:02:56;16.53;;;7.47;;
2646;SDS011;1333;50.958;6.770;2022-11-12T04:05:22;13.20;;;7.70;;
2646;SDS011;1333;50.958;6.770;2022-11-12T04:10:58;12.93;;;8.20;;
2646;SDS011;1333;50.958;6.770;2022-11-12T04:13:24;11.47;;;6.83;;
2646;SDS011;1333;50.958;6.770;2022-11-12T04:15:54;12.90;;;6.13;;
2646;SDS011;1333;50.958;6.770;2022-11-12T04:18:38;11.87;;;7.87;;
2646;SDS011;1333;50.958;6.770;2022-11-12T04:21:28;10.33;;;6.60;;
2646;SDS011;1333;50.958;6.770;2022-11-12T04:24:14;12.53;;;8.00;;
2646;SDS011;1333;50.958;6.770;2022-11-12T04:26:59;11.67;;;6.73;;
2646;SDS011;1333;50.958;6.770;2022-11-12T04:29:25;12.90;;;8.00;;
2646;SDS011;1333;50.958;6.770;2022-11-12T04:32:09;13.10;;;8.90;;
2646;SDS011;1333;50.958;6.770;2022-11-12T04:34:34;9.00;;;7.00;;
2646;SDS011;1333;50.958;6.770;2022-11-12T04:37:01;11.33;;;7.07;;
2646;SDS011;1333;50.958;6.770;2022-11-12T04:39:29;12.47;;;7.53;;
2646;SDS011;1333;50.958;6.770;2022-11-12T04:41:54;11.37;;;7.10;;
2646;SDS011;1333;50.958;6.770;2022-11-12T04:44:39;12.57;;;7.53;;
2646;SDS011;1333;50.958;6.770;2022-11-12T04:47:23;10.80;;;7.60;;
2646;SDS011;1333;50.958;6.770;2022-11-12T04:49:49;12.30;;;6.40;;
2646;SDS011;1333;50.958;6.770;2022-11-12T04:52:14;12.53;;;7.13;;
2646;SDS011;1333;50.958;6.770;2022-11-12T04:54:40;11.53;;;7.10;;
2646;SDS011;1333;50.958;6.770;2022-11-12T04:57:06;19.20;;;9.07;;
2646;SDS011;1333;50.958;6.770;2022-11-12T04:59:31;9.53;;;6.93;;
2646;SDS011;1333;50.958;6.770;2022-11-12T05:01:57;12.60;;;7.77;;
2646;SDS011;1333;50.958;6.770;2022-11-12T05:04:22;11.07;;;6.70;;
2646;SDS011;1333;50.958;6.770;2022-11-12T05:06:51;13.73;;;6.30;;
2646;SDS011;1333;50.958;6.770;2022-11-12T05:09:18;12.90;;;7.57;;
2646;SDS011;1333;50.958;6.770;2022-11-12T05:11:45;11.90;;;8.07;;
2646;SDS011;1333;50.958;6.770;2022-11-12T05:14:11;11.83;;;8.23;;
2646;SDS011;1333;50.958;6.770;2022-11-12T05:16:37;13.70;;;6.70;;
2646;SDS011;1333;50.958;6.770;2022-11-12T05:19:03;12.57;;;7.83;;
2646;SDS011;1333;50.958;6.770;2022-11-12T05:21:28;9.90;;;6.27;;
2646;SDS011;1333;50.958;6.770;2022-11-12T05:24:12;17.67;;;7.60;;
2646;SDS011;1333;50.958;6.770;2022-11-12T05:26:38;12.87;;;7.90;;
2646;SDS011;1333;50.958;6.770;2022-11-12T05:29:04;13.47;;;8.70;;
2646;SDS011;1333;50.958;6.770;2022-11-12T05:31:29;9.43;;;6.57;;
2646;SDS011;1333;50.958;6.770;2022-11-12T05:33:55;18.30;;;7.93;;
2646;SDS011;1333;50.958;6.770;2022-11-12T05:36:20;16.60;;;7.00;;
2646;SDS011;1333;50.958;6.770;2022-11-12T05:38:46;13.13;;;7.80;;
2646;SDS011;1333;50.958;6.770;2022-11-12T05:41:12;13.53;;;7.93;;
2646;SDS011;1333;50.958;6.770;2022-11-12T05:43:37;12.87;;;7.67;;
2646;SDS011;1333;50.958;6.770;2022-11-12T05:46:03;12.63;;;8.80;;
2646;SDS011;1333;50.958;6.770;2022-11-12T05:48:28;17.30;;;8.83;;
2646;SDS011;1333;50.958;6.770;2022-11-12T05:50:54;10.30;;;6.40;;
2646;SDS011;1333;50.958;6.770;2022-11-12T05:53:20;12.10;;;7.37;;
2646;SDS011;1333;50.958;6.770;2022-11-12T05:55:45;10.90;;;7.40;;
2646;SDS011;1333;50.958;6.770;2022-11-12T05:58:11;10.50;;;7.33;;
2646;SDS011;1333;50.958;6.770;2022-11-12T06:00:36;12.00;;;8.07;;
2646;SDS011;1333;50.958;6.770;2022-11-12T06:03:05;15.03;;;6.70;;
2646;SDS011;1333;50.958;6.770;2022-11-12T06:05:34;12.60;;;7.53;;
2646;SDS011;1333;50.958;6.770;2022-11-12T06:08:00;12.23;;;8.13;;
2646;SDS011;1333;50.958;6.770;2022-11-12T06:10:27;15.03;;;7.33;;
2646;SDS011;1333;50.958;6.770;2022-11-12T06:12:53;13.97;;;9.17;;
2646;SDS011;1333;50.958;6.770;2022-11-12T06:15:19;13.73;;;7.97;;
2646;SDS011;1333;50.958;6.770;2022-11-12T06:17:45;9.20;;;6.17;;
2646;SDS011;1333;50.958;6.770;2022-11-12T06:20:10;14.90;;;7.20;;
2646;SDS011;1333;50.958;6.770;2022-11-12T06:22:36;12.80;;;6.87;;
2646;SDS011;1333;50.958;6.770;2022-11-12T06:25:02;10.60;;;7.23;;
2646;SDS011;1333;50.958;6.770;2022-11-12T06:27:28;15.30;;;7.43;;
2646;SDS011;1333;50.958;6.770;2022-11-12T06:29:54;18.37;;;8.10;;
2646;SDS011;1333;50.958;6.770;2022-11-12T06:32:19;13.07;;;7.90;;
2646;SDS011;1333;50.958;6.770;2022-11-12T06:34:45;12.20;;;9.00;;
2646;SDS011;1333;50.958;6.770;2022-11-12T06:37:10;12.33;;;7.20;;
2646;SDS011;1333;50.958;6.770;2022-11-12T06:39:36;14.60;;;8.50;;
2646;SDS011;1333;50.958;6.770;2022-11-12T06:42:01;16.67;;;7.93;;
2646;SDS011;1333;50.958;6.770;2022-11-12T06:44:27;10.70;;;6.57;;
2646;SDS011;1333;50.958;6.770;2022-11-12T06:46:53;14.47;;;7.13;;
2646;SDS011;1333;50.958;6.770;2022-11-12T06:49:18;15.47;;;7.30;;
2646;SDS011;1333;50.958;6.770;2022-11-12T06:51:44;17.53;;;8.63;;
2646;SDS011;1333;50.958;6.770;2022-11-12T06:54:09;11.50;;;7.60;;
2646;SDS011;1333;50.958;6.770;2022-11-12T06:56:35;13.23;;;7.97;;
2646;SDS011;1333;50.958;6.770;2022-11-12T06:59:00;12.67;;;8.13;;
2646;SDS011;1333;50.958;6.770;2022-11-12T07:01:26;10.07;;;6.60;;
2646;SDS011;1333;50.958;6.770;2022-11-12T07:03:52;11.50;;;7.50;;
2646;SDS011;1333;50.958;6.770;2022-11-12T07:06:18;16.43;;;7.67;;
2646;SDS011;1333;50.958;6.770;2022-11-12T07:08:45;14.90;;;8.77;;
2646;SDS011;1333;50.958;6.770;2022-11-12T07:11:11;12.87;;;7.63;;
2646;SDS011;1333;50.958;6.770;2022-11-12T07:13:37;15.87;;;7.53;;
2646;SDS011;1333;50.958;6.770;2022-11-12T07:16:04;14.60;;;8.23;;
2646;SDS011;1333;50.958;6.770;2022-11-12T07:18:31;11.63;;;7.60;;
2646;SDS011;1333;50.958;6.770;2022-11-12T07:21:02;16.17;;;8.50;;
2646;SDS011;1333;50.958;6.770;2022-11-12T07:23:30;14.07;;;8.33;;
2646;SDS011;1333;50.958;6.770;2022-11-12T07:25:58;15.97;;;8.30;;
2646;SDS011;1333;50.958;6.770;2022-11-12T07:28:26;13.97;;;8.67;;
2646;SDS011;1333;50.958;6.770;2022-11-12T07:31:01;13.87;;;9.00;;
2646;SDS011;1333;50.958;6.770;2022-11-12T07:33:29;14.23;;;7.13;;
2646;SDS011;1333;50.958;6.770;2022-11-12T07:35:56;16.10;;;8.90;;
2646;SDS011;1333;50.958;6.770;2022-11-12T07:38:26;15.23;;;8.83;;
2646;SDS011;1333;50.958;6.770;2022-11-12T07:40:59;14.17;;;8.20;;
2646;SDS011;1333;50.958;6.770;2022-11-12T07:43:25;15.17;;;8.30;;
2646;SDS011;1333;50.958;6.770;2022-11-12T07:45:51;16.20;;;8.83;;
2646;SDS011;1333;50.958;6.770;2022-11-12T07:48:17;16.80;;;8.53;;
2646;SDS011;1333;50.958;6.770;2022-11-12T07:50:42;18.70;;;10.20;;
2646;SDS011;1333;50.958;6.770;2022-11-12T07:53:08;14.93;;;8.47;;
2646;SDS011;1333;50.958;6.770;2022-11-12T07:55:33;18.90;;;10.27;;
2646;SDS011;1333;50.958;6.770;2022-11-12T07:57:59;17.27;;;10.30;;
2646;SDS011;1333;50.958;6.770;2022-11-12T08:00:24;15.03;;;9.47;;
2646;SDS011;1333;50.958;6.770;2022-11-12T08:02:50;11.73;;;8.43;;
2646;SDS011;1333;50.958;6.770;2022-11-12T08:05:15;13.20;;;8.87;;
2646;SDS011;1333;50.958;6.770;2022-11-12T08:07:41;12.93;;;8.97;;
2646;SDS011;1333;50.958;6.770;2022-11-12T08:10:07;10.30;;;6.80;;
2646;SDS011;1333;50.958;6.770;2022-11-12T08:12:32;8.97;;;6.00;;
2646;SDS011;1333;50.958;6.770;2022-11-12T08:14:58;9.57;;;5.17;;
2646;SDS011;1333;50.958;6.770;2022-11-12T08:17:23;8.57;;;5.90;;
2646;SDS011;1333;50.958;6.770;2022-11-12T08:19:49;7.07;;;5.47;;
2646;SDS011;1333;50.958;6.770;2022-11-12T08:22:19;5.03;;;4.50;;
2646;SDS011;1333;50.958;6.770;2022-11-12T08:24:45;8.00;;;4.73;;
2646;SDS011;1333;50.958;6.770;2022-11-12T08:27:10;5.60;;;4.37;;
2646;SDS011;1333;50.958;6.770;2022-11-12T08:29:36;6.10;;;4.63;;
2646;SDS011;1333;50.958;6.770;2022-11-12T08:32:01;6.70;;;4.40;;
2646;SDS011;1333;50.958;6.770;2022-11-12T08:34:27;5.47;;;4.00;;
2646;SDS011;1333;50.958;6.770;2022-11-12T08:36:52;9.27;;;3.57;;
2646;SDS011;1333;50.958;6.770;2022-11-12T08:39:18;4.07;;;3.17;;
2646;SDS011;1333;50.958;6.770;2022-11-12T08:41:43;4.53;;;3.90;;
2646;SDS011;1333;50.958;6.770;2022-11-12T08:44:09;4.63;;;3.63;;
2646;SDS011;1333;50.958;6.770;2022-11-12T08:46:34;5.23;;;4.07;;
2646;SDS011;1333;50.958;6.770;2022-11-12T08:49:00;4.57;;;3.37;;
2646;SDS011;1333;50.958;6.770;2022-11-12T08:51:25;4.50;;;3.33;;
2646;SDS011;1333;50.958;6.770;2022-11-12T08:53:51;5.70;;;4.53;;
2646;SDS011;1333;50.958;6.770;2022-11-12T08:56:16;6.10;;;4.40;;
2646;SDS011;1333;50.958;6.770;2022-11-12T08:58:42;5.10;;;3.77;;
2646;SDS011;1333;50.958;6.770;2022-11-12T09:01:08;4.30;;;3.90;;
2646;SDS011;1333;50.958;6.770;2022-11-12T09:03:34;5.77;;;4.07;;
2646;SDS011;1333;50.958;6.770;2022-11-12T09:06:03;6.27;;;4.03;;
2646;SDS011;1333;50.958;6.770;2022-11-12T09:08:31;5.80;;;4.10;;
2646;SDS011;1333;50.958;6.770;2022-11-12T09:10:57;5.87;;;4.10;;
2646;SDS011;1333;50.958;6.770;2022-11-12T09:13:23;6.90;;;4.73;;
2646;SDS011;1333;50.958;6.770;2022-11-12T09:15:48;6.90;;;4.40;;
2646;SDS011;1333;50.958;6.770;2022-11-12T09:18:14;4.90;;;4.10;;
2646;SDS011;1333;50.958;6.770;2022-11-12T09:20:41;4.60;;;4.13;;
2646;SDS011;1333;50.958;6.770;2022-11-12T09:23:08;5.47;;;4.27;;
2646;SDS011;1333;50.958;6.770;2022-11-12T09:25:35;5.23;;;3.97;;
2646;SDS011;1333;50.958;6.770;2022-11-12T09:28:05;5.27;;;4.00;;
2646;SDS011;1333;50.958;6.770;2022-11-12T09:30:36;5.93;;;4.13;;
2646;SDS011;1333;50.958;6.770;2022-11-12T09:33:02;5.73;;;4.60;;
2646;SDS011;1333;50.958;6.770;2022-11-12T09:35:28;5.27;;;3.37;;
2646;SDS011;1333;50.958;6.770;2022-11-12T09:37:54;4.70;;;4.00;;
2646;SDS011;1333;50.958;6.770;2022-11-12T09:40:20;8.20;;;4.00;;
2646;SDS011;1333;50.958;6.770;2022-11-12T09:42:51;4.07;;;3.67;;
2646;SDS011;1333;50.958;6.770;2022-11-12T09:45:27;4.10;;;3.70;;
2646;SDS011;1333;50.958;6.770;2022-11-12T09:47:56;5.40;;;4.30;;
2646;SDS011;1333;50.958;6.770;2022-11-12T09:50:27;8.00;;;3.90;;
2646;SDS011;1333;50.958;6.770;2022-11-12T09:53:39;3.70;;;3.20;;
2646;SDS011;1333;50.958;6.770;2022-11-12T09:55:59;5.53;;;3.60;;
2646;SDS011;1333;50.958;6.770;2022-11-12T09:58:29;3.37;;;2.87;;
2646;SDS011;1333;50.958;6.770;2022-11-12T10:00:55;5.03;;;3.30;;
2646;SDS011;1333;50.958;6.770;2022-11-12T10:06:21;4.50;;;4.00;;
2646;SDS011;1333;50.958;6.770;2022-11-12T10:08:52;4.47;;;3.53;;
2646;SDS011;1333;50.958;6.770;2022-11-12T10:17:23;5.17;;;3.60;;
2646;SDS011;1333;50.958;6.770;2022-11-12T10:20:13;5.20;;;3.50;;
2646;SDS011;1333;50.958;6.770;2022-11-12T10:25:38;4.80;;;3.67;;
2646;SDS011;1333;50.958;6.770;2022-11-12T10:31:10;3.80;;;3.43;;
2646;SDS011;1333;50.958;6.770;2022-11-12T10:33:37;4.30;;;3.53;;
2646;SDS011;1333;50.958;6.770;2022-11-12T10:38:45;3.83;;;3.43;;
2646;SDS011;1333;50.958;6.770;2022-11-12T10:41:18;6.03;;;3.37;;
2646;SDS011;1333;50.958;6.770;2022-11-12T10:44:26;4.00;;;3.60;;
2646;SDS011;1333;50.958;6.770;2022-11-12T10:46:37;3.90;;;3.43;;
2646;SDS011;1333;50.958;6.770;2022-11-12T10:49:04;3.93;;;3.53;;
2646;SDS011;1333;50.958;6.770;2022-11-12T10:51:56;4.50;;;3.57;;
2646;SDS011;1333;50.958;6.770;2022-11-12T10:56:51;4.50;;;3.57;;
2646;SDS011;1333;50.958;6.770;2022-11-12T10:59:18;3.50;;;3.20;;
2646;SDS011;1333;50.958;6.770;2022-11-12T11:01:45;6.30;;;3.23;;
2646;SDS011;1333;50.958;6.770;2022-11-12T11:09:30;5.33;;;3.90;;
2646;SDS011;1333;50.958;6.770;2022-11-12T11:11:56;3.17;;;2.87;;
2646;SDS011;1333;50.958;6.770;2022-11-12T11:17:00;5.20;;;3.80;;
2646;SDS011;1333;50.958;6.770;2022-11-12T11:19:33;5.30;;;3.70;;
2646;SDS011;1333;50.958;6.770;2022-11-12T11:24:54;6.17;;;4.37;;
2646;SDS011;1333;50.958;6.770;2022-11-12T11:27:36;3.87;;;3.40;;
2646;SDS011;1333;50.958;6.770;2022-11-12T11:30:11;4.73;;;3.70;;
2646;SDS011;1333;50.958;6.770;2022-11-12T11:46:32;4.40;;;3.20;;
2646;SDS011;1333;50.958;6.770;2022-11-12T11:51:51;4.97;;;3.07;;
2646;SDS011;1333;50.958;6.770;2022-11-12T11:57:27;5.27;;;3.50;;
2646;SDS011;1333;50.958;6.770;2022-11-12T12:08:04;5.33;;;3.33;;
2646;SDS011;1333;50.958;6.770;2022-11-12T12:14:15;3.33;;;3.00;;
2646;SDS011;1333;50.958;6.770;2022-11-12T12:19:49;3.03;;;2.73;;
2646;SDS011;1333;50.958;6.770;2022-11-12T12:22:35;4.30;;;3.90;;
2646;SDS011;1333;50.958;6.770;2022-11-12T12:25:08;4.60;;;3.50;;
2646;SDS011;1333;50.958;6.770;2022-11-12T12:27:42;4.33;;;2.70;;
2646;SDS011;1333;50.958;6.770;2022-11-12T12:30:18;3.63;;;3.33;;
2646;SDS011;1333;50.958;6.770;2022-11-12T12:38:26;4.53;;;4.00;;
2646;SDS011;1333;50.958;6.770;2022-11-12T12:41:04;7.30;;;3.30;;
2646;SDS011;1333;50.958;6.770;2022-11-12T12:43:42;4.87;;;3.93;;
2646;SDS011;1333;50.958;6.770;2022-11-12T12:46:19;4.07;;;3.60;;
2646;SDS011;1333;50.958;6.770;2022-11-12T12:48:48;5.30;;;4.80;;
2646;SDS011;1333;50.958;6.770;2022-11-12T12:51:17;6.00;;;4.13;;
2646;SDS011;1333;50.958;6.770;2022-11-12T12:53:43;4.03;;;3.60;;
2646;SDS011;1333;50.958;6.770;2022-11-12T12:58:41;4.10;;;3.70;;
2646;SDS011;1333;50.958;6.770;2022-11-12T13:35:14;5.30;;;3.50;;
2646;SDS011;1333;50.958;6.770;2022-11-12T13:40:31;4.87;;;3.50;;
2646;SDS011;1333;50.958;6.770;2022-11-12T13:43:02;4.63;;;3.03;;
2646;SDS011;1333;50.958;6.770;2022-11-12T13:45:45;5.27;;;3.77;;
2646;SDS011;1333;50.958;6.770;2022-11-12T13:48:24;6.17;;;4.03;;
2646;SDS011;1333;50.958;6.770;2022-11-12T13:50:57;5.50;;;4.00;;
2646;SDS011;1333;50.958;6.770;2022-11-12T13:53:26;3.77;;;3.47;;
2646;SDS011;1333;50.958;6.770;2022-11-12T13:55:54;4.23;;;3.70;;
2646;SDS011;1333;50.958;6.770;2022-11-12T13:58:33;3.60;;;3.17;;
2646;SDS011;1333;50.958;6.770;2022-11-12T14:01:00;4.60;;;3.50;;
2646;SDS011;1333;50.958;6.770;2022-11-12T14:03:27;4.07;;;3.20;;
2646;SDS011;1333;50.958;6.770;2022-11-12T14:06:15;3.73;;;3.37;;
2646;SDS011;1333;50.958;6.770;2022-11-12T14:09:05;5.10;;;4.60;;
2646;SDS011;1333;50.958;6.770;2022-11-12T14:11:54;5.17;;;3.90;;
2646;SDS011;1333;50.958;6.770;2022-11-12T14:17:16;4.30;;;3.30;;
2646;SDS011;1333;50.958;6.770;2022-11-12T14:25:46;3.07;;;2.77;;
2646;SDS011;1333;50.958;6.770;2022-11-12T14:28:27;5.30;;;3.27;;
2646;SDS011;1333;50.958;6.770;2022-11-12T14:30:58;3.47;;;3.10;;
2646;SDS011;1333;50.958;6.770;2022-11-12T14:33:26;5.73;;;3.53;;
2646;SDS011;1333;50.958;6.770;2022-11-12T14:35:53;4.63;;;3.60;;
2646;SDS011;1333;50.958;6.770;2022-11-12T14:38:37;4.57;;;3.40;;
2646;SDS011;1333;50.958;6.770;2022-11-12T14:44:01;5.43;;;3.60;;
2646;SDS011;1333;50.958;6.770;2022-11-12T14:46:31;4.10;;;2.80;;
2646;SDS011;1333;50.958;6.770;2022-11-12T14:52:19;5.13;;;3.07;;
2646;SDS011;1333;50.958;6.770;2022-11-12T14:54:51;8.20;;;3.00;;
2646;SDS011;1333;50.958;6.770;2022-11-12T14:57:22;3.37;;;3.07;;
2646;SDS011;1333;50.958;6.770;2022-11-12T14:59:51;4.43;;;3.13;;
2646;SDS011;1333;50.958;6.770;2022-11-12T15:02:30;6.47;;;3.97;;
2646;SDS011;1333;50.958;6.770;2022-11-12T15:05:00;4.43;;;4.03;;
2646;SDS011;1333;50.958;6.770;2022-11-12T15:13:02;3.63;;;3.30;;
2646;SDS011;1333;50.958;6.770;2022-11-12T15:15:31;5.17;;;3.10;;
2646;SDS011;1333;50.958;6.770;2022-11-12T15:18:00;9.60;;;3.70;;
2646;SDS011;1333;50.958;6.770;2022-11-12T15:20:28;7.70;;;3.27;;
2646;SDS011;1333;50.958;6.770;2022-11-12T15:22:54;3.93;;;2.97;;
2646;SDS011;1333;50.958;6.770;2022-11-12T15:25:27;4.03;;;2.67;;
2646;SDS011;1333;50.958;6.770;2022-11-12T15:27:54;3.20;;;2.40;;
2646;SDS011;1333;50.958;6.770;2022-11-12T15:30:35;8.83;;;2.33;;
2646;SDS011;1333;50.958;6.770;2022-11-12T15:35:36;8.60;;;2.97;;
2646;SDS011;1333;50.958;6.770;2022-11-12T15:38:11;5.07;;;2.90;;
2646;SDS011;1333;50.958;6.770;2022-11-12T15:40:53;3.20;;;2.70;;
2646;SDS011;1333;50.958;6.770;2022-11-12T15:43:21;2.73;;;2.13;;
2646;SDS011;1333;50.958;6.770;2022-11-12T15:45:49;3.23;;;2.70;;
2646;SDS011;1333;50.958;6.770;2022-11-12T15:48:16;6.57;;;3.23;;
2646;SDS011;1333;50.958;6.770;2022-11-12T15:50:42;3.97;;;3.00;;
2646;SDS011;1333;50.958;6.770;2022-11-12T15:53:08;4.83;;;3.37;;
2646;SDS011;1333;50.958;6.770;2022-11-12T15:55:34;5.13;;;2.60;;
2646;SDS011;1333;50.958;6.770;2022-11-12T15:58:02;4.87;;;3.27;;
2646;SDS011;1333;50.958;6.770;2022-11-12T16:00:33;3.37;;;2.80;;
2646;SDS011;1333;50.958;6.770;2022-11-12T16:03:05;4.73;;;2.53;;
2646;SDS011;1333;50.958;6.770;2022-11-12T16:05:37;4.13;;;2.83;;
2646;SDS011;1333;50.958;6.770;2022-11-12T16:08:03;4.07;;;2.87;;
2646;SDS011;1333;50.958;6.770;2022-11-12T16:10:28;7.37;;;2.60;;
2646;SDS011;1333;50.958;6.770;2022-11-12T16:12:56;4.30;;;3.20;;
2646;SDS011;1333;50.958;6.770;2022-11-12T16:15:23;3.93;;;3.20;;
2646;SDS011;1333;50.958;6.770;2022-11-12T16:17:51;4.40;;;2.90;;
2646;SDS011;1333;50.958;6.770;2022-11-12T16:20:19;3.07;;;2.77;;
2646;SDS011;1333;50.958;6.770;2022-11-12T16:23:03;3.00;;;2.47;;
2646;SDS011;1333;50.958;6.770;2022-11-12T16:25:29;4.40;;;2.80;;
2646;SDS011;1333;50.958;6.770;2022-11-12T16:27:57;4.40;;;3.03;;
2646;SDS011;1333;50.958;6.770;2022-11-12T16:30:24;5.73;;;2.97;;
2646;SDS011;1333;50.958;6.770;2022-11-12T16:32:52;3.87;;;3.40;;
2646;SDS011;1333;50.958;6.770;2022-11-12T16:35:17;4.03;;;2.90;;
2646;SDS011;1333;50.958;6.770;2022-11-12T16:37:44;3.37;;;3.07;;
2646;SDS011;1333;50.958;6.770;2022-11-12T16:40:17;3.60;;;2.93;;
2646;SDS011;1333;50.958;6.770;2022-11-12T16:42:48;3.77;;;2.97;;
2646;SDS011;1333;50.958;6.770;2022-11-12T16:45:14;4.87;;;2.83;;
2646;SDS011;1333;50.958;6.770;2022-11-12T16:47:45;3.90;;;2.90;;
2646;SDS011;1333;50.958;6.770;2022-11-12T16:50:13;5.53;;;2.90;;
2646;SDS011;1333;50.958;6.770;2022-11-12T16:52:40;6.47;;;3.70;;
2646;SDS011;1333;50.958;6.770;2022-11-12T16:55:06;5.97;;;2.77;;
2646;SDS011;1333;50.958;6.770;2022-11-12T16:57:32;4.20;;;3.10;;
2646;SDS011;1333;50.958;6.770;2022-11-12T16:59:58;3.27;;;2.97;;
2646;SDS011;1333;50.958;6.770;2022-11-12T17:02:23;3.40;;;2.87;;
2646;SDS011;1333;50.958;6.770;2022-11-12T17:04:49;6.03;;;3.50;;
2646;SDS011;1333;50.958;6.770;2022-11-12T17:07:14;5.13;;;3.20;;
2646;SDS011;1333;50.958;6.770;2022-11-12T17:09:40;4.53;;;3.33;;
2646;SDS011;1333;50.958;6.770;2022-11-12T17:12:06;4.30;;;3.23;;
2646;SDS011;1333;50.958;6.770;2022-11-12T17:14:32;3.80;;;2.90;;
2646;SDS011;1333;50.958;6.770;2022-11-12T17:16:57;4.53;;;3.03;;
2646;SDS011;1333;50.958;6.770;2022-11-12T17:19:23;3.70;;;3.07;;
2646;SDS011;1333;50.958;6.770;2022-11-12T17:21:48;12.23;;;3.17;;
2646;SDS011;1333;50.958;6.770;2022-11-12T17:24:14;5.07;;;3.83;;
2646;SDS011;1333;50.958;6.770;2022-11-12T17:26:39;3.30;;;3.00;;
2646;SDS011;1333;50.958;6.770;2022-11-12T17:29:05;5.63;;;3.53;;
2646;SDS011;1333;50.958;6.770;2022-11-12T17:31:31;4.90;;;3.23;;
2646;SDS011;1333;50.958;6.770;2022-11-12T17:33:56;4.43;;;3.93;;